sensor_id;sensor_type;location;lat;lon;timestamp;P1;durP1;ratioP1;P2;durP2;ratioP2
49582;SDS011;36329;48.816;44.624;2023-06-26T00:00:49;2.7;;;0.8;;
49582;SDS011;36329;48.816;44.624;2023-06-26T00:03:51;4.8;;;0.8;;
49582;SDS011;36329;48.816;44.624;2023-06-26T00:06:53;1;;;0.8;;
49582;SDS011;36329;48.816;44.624;2023-06-26T00:09:56;1.2;;;1;;
49582;SDS011;36329;48.816;44.624;2023-06-26T00:12:58;2.1;;;0.9;;
49582;SDS011;36329;48.816;44.624;2023-06-26T00:16:01;1.5;;;0.9;;
49582;SDS011;36329;48.816;44.624;2023-06-26T00:19:03;1.1;;;0.8;;
49582;SDS011;36329;48.816;44.624;2023-06-26T00:22:05;1.4;;;1;;
49582;SDS011;36329;48.816;44.624;2023-06-26T00:25:07;1.5;;;0.9;;
49582;SDS011;36329;48.816;44.624;2023-06-26T00:28:09;2.3;;;1;;
49582;SDS011;36329;48.816;44.624;2023-06-26T00:31:11;2.4;;;1;;
49582;SDS011;36329;48.816;44.624;2023-06-26T00:34:13;1.7;;;0.9;;
49582;SDS011;36329;48.816;44.624;2023-06-26T00:37:17;2;;;0.9;;
49582;SDS011;36329;48.816;44.624;2023-06-26T00:40:19;2.6;;;0.9;;
49582;SDS011;36329;48.816;44.624;2023-06-26T00:43:21;3.1;;;1.1;;
49582;SDS011;36329;48.816;44.624;2023-06-26T00:46:23;1.7;;;1.2;;
49582;SDS011;36329;48.816;44.624;2023-06-26T00:49:26;1.3;;;1.1;;
49582;SDS011;36329;48.816;44.624;2023-06-26T00:52:28;2;;;1.3;;
49582;SDS011;36329;48.816;44.624;2023-06-26T00:55:30;2.6;;;1.5;;
49582;SDS011;36329;48.816;44.624;2023-06-26T00:58:32;2.8;;;1.5;;
49582;SDS011;36329;48.816;44.624;2023-06-26T01:01:34;3.2;;;1.3;;
49582;SDS011;36329;48.816;44.624;2023-06-26T01:04:36;2.2;;;1.4;;
49582;SDS011;36329;48.816;44.624;2023-06-26T01:07:38;2.6;;;1.4;;
49582;SDS011;36329;48.816;44.624;2023-06-26T01:10:42;1.8;;;1.2;;
49582;SDS011;36329;48.816;44.624;2023-06-26T01:13:44;2.5;;;1.4;;
49582;SDS011;36329;48.816;44.624;2023-06-26T01:16:48;1.6;;;1.4;;
49582;SDS011;36329;48.816;44.624;2023-06-26T01:19:51;3.1;;;1.7;;
49582;SDS011;36329;48.816;44.624;2023-06-26T01:22:56;3.5;;;1.4;;
49582;SDS011;36329;48.816;44.624;2023-06-26T01:26:15;4;;;1.5;;
49582;SDS011;36329;48.816;44.624;2023-06-26T01:29:18;4;;;1.7;;
49582;SDS011;36329;48.816;44.624;2023-06-26T01:32:22;2.3;;;1.5;;
49582;SDS011;36329;48.816;44.624;2023-06-26T01:35:24;2.8;;;1.5;;
49582;SDS011;36329;48.816;44.624;2023-06-26T01:38:27;2.7;;;1.4;;
49582;SDS011;36329;48.816;44.624;2023-06-26T01:41:29;3.6;;;1.6;;
49582;SDS011;36329;48.816;44.624;2023-06-26T01:44:32;2.3;;;1.5;;
49582;SDS011;36329;48.816;44.624;2023-06-26T01:47:39;2.6;;;1.5;;
49582;SDS011;36329;48.816;44.624;2023-06-26T01:50:46;6.2;;;1.8;;
49582;SDS011;36329;48.816;44.624;2023-06-26T01:53:50;4.9;;;1.7;;
49582;SDS011;36329;48.816;44.624;2023-06-26T01:56:57;2.4;;;1.3;;
49582;SDS011;36329;48.816;44.624;2023-06-26T02:00:00;3;;;1.6;;
49582;SDS011;36329;48.816;44.624;2023-06-26T02:03:07;2;;;1.4;;
49582;SDS011;36329;48.816;44.624;2023-06-26T02:06:10;3.3;;;1.4;;
49582;SDS011;36329;48.816;44.624;2023-06-26T02:09:12;4.2;;;1.5;;
49582;SDS011;36329;48.816;44.624;2023-06-26T02:12:14;4.1;;;1.9;;
49582;SDS011;36329;48.816;44.624;2023-06-26T02:15:16;4.1;;;1.6;;
49582;SDS011;36329;48.816;44.624;2023-06-26T02:18:18;3;;;1.9;;
49582;SDS011;36329;48.816;44.624;2023-06-26T02:21:20;3.5;;;2;;
49582;SDS011;36329;48.816;44.624;2023-06-26T02:24:22;3.3;;;2;;
49582;SDS011;36329;48.816;44.624;2023-06-26T02:27:24;4.6;;;1.8;;
49582;SDS011;36329;48.816;44.624;2023-06-26T02:30:26;3.8;;;1.8;;
49582;SDS011;36329;48.816;44.624;2023-06-26T02:33:28;2.8;;;1.6;;
49582;SDS011;36329;48.816;44.624;2023-06-26T02:36:30;4.9;;;1.7;;
49582;SDS011;36329;48.816;44.624;2023-06-26T02:39:32;3;;;1.4;;
49582;SDS011;36329;48.816;44.624;2023-06-26T02:42:34;3.4;;;1.4;;
49582;SDS011;36329;48.816;44.624;2023-06-26T02:45:36;4.9;;;1.7;;
49582;SDS011;36329;48.816;44.624;2023-06-26T02:48:38;3.5;;;1.8;;
49582;SDS011;36329;48.816;44.624;2023-06-26T02:51:40;6;;;2.1;;
49582;SDS011;36329;48.816;44.624;2023-06-26T02:54:42;3.8;;;2;;
49582;SDS011;36329;48.816;44.624;2023-06-26T02:57:44;2.5;;;1.7;;
49582;SDS011;36329;48.816;44.624;2023-06-26T03:00:46;2.4;;;1.8;;
49582;SDS011;36329;48.816;44.624;2023-06-26T03:03:48;2.8;;;2;;
49582;SDS011;36329;48.816;44.624;2023-06-26T03:06:50;3.5;;;1.9;;
49582;SDS011;36329;48.816;44.624;2023-06-26T03:09:52;6.1;;;2;;
49582;SDS011;36329;48.816;44.624;2023-06-26T03:12:54;4;;;2;;
49582;SDS011;36329;48.816;44.624;2023-06-26T03:15:56;3;;;2;;
49582;SDS011;36329;48.816;44.624;2023-06-26T03:18:58;4.1;;;2;;
49582;SDS011;36329;48.816;44.624;2023-06-26T03:22:00;2.4;;;1.9;;
49582;SDS011;36329;48.816;44.624;2023-06-26T03:25:02;3.2;;;2.1;;
49582;SDS011;36329;48.816;44.624;2023-06-26T03:28:05;2.4;;;1.9;;
49582;SDS011;36329;48.816;44.624;2023-06-26T03:31:07;2.8;;;1.6;;
49582;SDS011;36329;48.816;44.624;2023-06-26T03:34:09;5.6;;;2;;
49582;SDS011;36329;48.816;44.624;2023-06-26T03:37:11;3.1;;;1.9;;
49582;SDS011;36329;48.816;44.624;2023-06-26T03:40:13;2.8;;;2.1;;
49582;SDS011;36329;48.816;44.624;2023-06-26T03:43:15;3.7;;;2.2;;
49582;SDS011;36329;48.816;44.624;2023-06-26T03:46:17;5.3;;;2.2;;
49582;SDS011;36329;48.816;44.624;2023-06-26T03:49:19;3.8;;;2.4;;
49582;SDS011;36329;48.816;44.624;2023-06-26T03:52:21;3.8;;;2.2;;
49582;SDS011;36329;48.816;44.624;2023-06-26T03:55:23;4.7;;;2.5;;
49582;SDS011;36329;48.816;44.624;2023-06-26T03:58:26;5;;;2.3;;
49582;SDS011;36329;48.816;44.624;2023-06-26T04:01:28;3.3;;;2.3;;
49582;SDS011;36329;48.816;44.624;2023-06-26T04:04:31;5.1;;;2.4;;
49582;SDS011;36329;48.816;44.624;2023-06-26T04:07:33;3.6;;;2.3;;
49582;SDS011;36329;48.816;44.624;2023-06-26T04:10:36;3.8;;;2.4;;
49582;SDS011;36329;48.816;44.624;2023-06-26T04:13:38;5.6;;;2.5;;
49582;SDS011;36329;48.816;44.624;2023-06-26T04:16:40;4.2;;;2.3;;
49582;SDS011;36329;48.816;44.624;2023-06-26T04:19:42;6.1;;;2.3;;
49582;SDS011;36329;48.816;44.624;2023-06-26T04:22:44;4.8;;;2.2;;
49582;SDS011;36329;48.816;44.624;2023-06-26T04:25:46;4.3;;;2.4;;
49582;SDS011;36329;48.816;44.624;2023-06-26T04:28:48;5.8;;;2.4;;
49582;SDS011;36329;48.816;44.624;2023-06-26T04:31:51;5.3;;;2.4;;
49582;SDS011;36329;48.816;44.624;2023-06-26T04:34:52;5.7;;;2.5;;
49582;SDS011;36329;48.816;44.624;2023-06-26T04:37:54;5.5;;;2.6;;
49582;SDS011;36329;48.816;44.624;2023-06-26T04:40:57;5.8;;;3.2;;
49582;SDS011;36329;48.816;44.624;2023-06-26T04:43:58;9.7;;;4.3;;
49582;SDS011;36329;48.816;44.624;2023-06-26T04:47:00;10.1;;;5.1;;
49582;SDS011;36329;48.816;44.624;2023-06-26T04:50:02;12.8;;;5.7;;
49582;SDS011;36329;48.816;44.624;2023-06-26T04:53:05;12.2;;;5.8;;
49582;SDS011;36329;48.816;44.624;2023-06-26T04:56:08;8.6;;;3.9;;
49582;SDS011;36329;48.816;44.624;2023-06-26T04:59:10;7.6;;;3.2;;
49582;SDS011;36329;48.816;44.624;2023-06-26T05:02:12;7.1;;;2.6;;
49582;SDS011;36329;48.816;44.624;2023-06-26T05:05:14;3.8;;;2.2;;
49582;SDS011;36329;48.816;44.624;2023-06-26T05:08:17;4.8;;;2.2;;
49582;SDS011;36329;48.816;44.624;2023-06-26T05:11:19;8.2;;;5.4;;
49582;SDS011;36329;48.816;44.624;2023-06-26T05:14:21;7.5;;;2.2;;
49582;SDS011;36329;48.816;44.624;2023-06-26T05:17:23;6;;;2.1;;
49582;SDS011;36329;48.816;44.624;2023-06-26T05:20:25;3.6;;;2;;
49582;SDS011;36329;48.816;44.624;2023-06-26T05:23:27;3.2;;;1.9;;
49582;SDS011;36329;48.816;44.624;2023-06-26T05:26:32;4.1;;;1.9;;
49582;SDS011;36329;48.816;44.624;2023-06-26T05:29:35;4.6;;;2.1;;
49582;SDS011;36329;48.816;44.624;2023-06-26T05:32:38;4.9;;;2.2;;
49582;SDS011;36329;48.816;44.624;2023-06-26T05:35:42;8.3;;;2.1;;
49582;SDS011;36329;48.816;44.624;2023-06-26T05:38:46;4.3;;;1.9;;
49582;SDS011;36329;48.816;44.624;2023-06-26T05:41:49;3.2;;;1.8;;
49582;SDS011;36329;48.816;44.624;2023-06-26T05:44:51;5;;;2.3;;
49582;SDS011;36329;48.816;44.624;2023-06-26T05:47:53;7.9;;;2.6;;
49582;SDS011;36329;48.816;44.624;2023-06-26T05:50:55;5.5;;;1.9;;
49582;SDS011;36329;48.816;44.624;2023-06-26T05:53:57;4.1;;;2.1;;
49582;SDS011;36329;48.816;44.624;2023-06-26T05:56:59;5.2;;;2.1;;
49582;SDS011;36329;48.816;44.624;2023-06-26T06:00:03;2.7;;;1.9;;
49582;SDS011;36329;48.816;44.624;2023-06-26T06:03:06;4.2;;;2;;
49582;SDS011;36329;48.816;44.624;2023-06-26T06:06:08;6.8;;;2.1;;
49582;SDS011;36329;48.816;44.624;2023-06-26T06:09:10;5.1;;;2;;
49582;SDS011;36329;48.816;44.624;2023-06-26T06:12:12;3.3;;;1.7;;
49582;SDS011;36329;48.816;44.624;2023-06-26T06:15:14;5.4;;;2.1;;
49582;SDS011;36329;48.816;44.624;2023-06-26T06:18:16;3.7;;;2.3;;
49582;SDS011;36329;48.816;44.624;2023-06-26T06:21:18;6.5;;;2;;
49582;SDS011;36329;48.816;44.624;2023-06-26T06:24:20;3.8;;;1.9;;
49582;SDS011;36329;48.816;44.624;2023-06-26T06:27:22;4.3;;;2.1;;
49582;SDS011;36329;48.816;44.624;2023-06-26T06:30:24;4.1;;;2;;
49582;SDS011;36329;48.816;44.624;2023-06-26T06:33:26;2.8;;;2;;
49582;SDS011;36329;48.816;44.624;2023-06-26T06:36:28;4;;;2;;
49582;SDS011;36329;48.816;44.624;2023-06-26T06:39:30;3.5;;;2.4;;
49582;SDS011;36329;48.816;44.624;2023-06-26T06:42:32;4.4;;;2.8;;
49582;SDS011;36329;48.816;44.624;2023-06-26T06:45:34;9.3;;;2.6;;
49582;SDS011;36329;48.816;44.624;2023-06-26T06:48:36;2.6;;;2.1;;
49582;SDS011;36329;48.816;44.624;2023-06-26T06:51:38;3.5;;;2.3;;
49582;SDS011;36329;48.816;44.624;2023-06-26T06:57:59;3.3;;;2.3;;
49582;SDS011;36329;48.816;44.624;2023-06-26T07:01:01;4.5;;;2.1;;
49582;SDS011;36329;48.816;44.624;2023-06-26T07:04:03;3.7;;;2.3;;
49582;SDS011;36329;48.816;44.624;2023-06-26T07:07:05;2.7;;;2;;
49582;SDS011;36329;48.816;44.624;2023-06-26T07:10:08;3.3;;;2.2;;
49582;SDS011;36329;48.816;44.624;2023-06-26T07:13:11;3.2;;;2.1;;
49582;SDS011;36329;48.816;44.624;2023-06-26T07:16:13;2.9;;;2.2;;
49582;SDS011;36329;48.816;44.624;2023-06-26T07:19:16;5.8;;;2.4;;
49582;SDS011;36329;48.816;44.624;2023-06-26T07:22:19;3.1;;;2;;
49582;SDS011;36329;48.816;44.624;2023-06-26T07:25:21;5.5;;;2.3;;
49582;SDS011;36329;48.816;44.624;2023-06-26T07:28:24;3.6;;;2.2;;
49582;SDS011;36329;48.816;44.624;2023-06-26T07:31:27;4.7;;;2.2;;
49582;SDS011;36329;48.816;44.624;2023-06-26T07:34:29;3.8;;;2.2;;
49582;SDS011;36329;48.816;44.624;2023-06-26T07:37:31;4.4;;;2.2;;
49582;SDS011;36329;48.816;44.624;2023-06-26T07:40:33;3.8;;;2.2;;
49582;SDS011;36329;48.816;44.624;2023-06-26T07:43:35;3.6;;;2.2;;
49582;SDS011;36329;48.816;44.624;2023-06-26T07:46:37;5.6;;;2.1;;
49582;SDS011;36329;48.816;44.624;2023-06-26T07:49:39;4;;;2.2;;
49582;SDS011;36329;48.816;44.624;2023-06-26T07:52:42;3.1;;;2.2;;
49582;SDS011;36329;48.816;44.624;2023-06-26T07:55:44;3;;;2.4;;
49582;SDS011;36329;48.816;44.624;2023-06-26T07:58:46;7;;;2.3;;
49582;SDS011;36329;48.816;44.624;2023-06-26T08:01:49;3;;;2.1;;
49582;SDS011;36329;48.816;44.624;2023-06-26T08:04:52;4.9;;;2.2;;
49582;SDS011;36329;48.816;44.624;2023-06-26T08:07:58;3;;;2.1;;
49582;SDS011;36329;48.816;44.624;2023-06-26T08:11:00;4.7;;;2.1;;
49582;SDS011;36329;48.816;44.624;2023-06-26T08:14:02;4.2;;;2.2;;
49582;SDS011;36329;48.816;44.624;2023-06-26T08:17:04;4.6;;;2.4;;
49582;SDS011;36329;48.816;44.624;2023-06-26T08:20:07;3.4;;;2.2;;
49582;SDS011;36329;48.816;44.624;2023-06-26T08:23:09;6.2;;;2.2;;
49582;SDS011;36329;48.816;44.624;2023-06-26T08:26:11;3.5;;;2.2;;
49582;SDS011;36329;48.816;44.624;2023-06-26T08:29:13;4;;;2.2;;
49582;SDS011;36329;48.816;44.624;2023-06-26T08:32:16;7.3;;;2.3;;
49582;SDS011;36329;48.816;44.624;2023-06-26T08:35:18;4.1;;;1.9;;
49582;SDS011;36329;48.816;44.624;2023-06-26T08:38:20;5.5;;;2.3;;
49582;SDS011;36329;48.816;44.624;2023-06-26T08:41:22;3.6;;;2.1;;
49582;SDS011;36329;48.816;44.624;2023-06-26T08:44:24;4.9;;;2;;
49582;SDS011;36329;48.816;44.624;2023-06-26T08:47:26;4.4;;;1.9;;
49582;SDS011;36329;48.816;44.624;2023-06-26T08:50:30;2.9;;;1.9;;
49582;SDS011;36329;48.816;44.624;2023-06-26T08:53:40;2.7;;;1.8;;
49582;SDS011;36329;48.816;44.624;2023-06-26T08:56:49;3;;;1.9;;
49582;SDS011;36329;48.816;44.624;2023-06-26T08:59:51;2.7;;;2.1;;
49582;SDS011;36329;48.816;44.624;2023-06-26T09:02:54;2.1;;;1.9;;
49582;SDS011;36329;48.816;44.624;2023-06-26T09:05:57;3.5;;;1.9;;
49582;SDS011;36329;48.816;44.624;2023-06-26T09:08:59;3.8;;;2;;
49582;SDS011;36329;48.816;44.624;2023-06-26T09:12:01;4.7;;;2.5;;
49582;SDS011;36329;48.816;44.624;2023-06-26T09:15:04;5.3;;;2.2;;
49582;SDS011;36329;48.816;44.624;2023-06-26T09:18:07;4.8;;;2.4;;
49582;SDS011;36329;48.816;44.624;2023-06-26T09:21:09;3.9;;;2.1;;
49582;SDS011;36329;48.816;44.624;2023-06-26T09:24:12;4.5;;;2.4;;
49582;SDS011;36329;48.816;44.624;2023-06-26T09:27:15;3.2;;;2.1;;
49582;SDS011;36329;48.816;44.624;2023-06-26T09:30:17;3.2;;;2;;
49582;SDS011;36329;48.816;44.624;2023-06-26T09:33:20;4.9;;;2.4;;
49582;SDS011;36329;48.816;44.624;2023-06-26T09:36:23;5.3;;;2.5;;
49582;SDS011;36329;48.816;44.624;2023-06-26T09:39:25;5.3;;;2.2;;
49582;SDS011;36329;48.816;44.624;2023-06-26T09:42:27;4.6;;;2.3;;
49582;SDS011;36329;48.816;44.624;2023-06-26T09:45:29;3.3;;;2.1;;
49582;SDS011;36329;48.816;44.624;2023-06-26T09:48:32;4.1;;;2.3;;
49582;SDS011;36329;48.816;44.624;2023-06-26T09:51:35;3.7;;;2.3;;
49582;SDS011;36329;48.816;44.624;2023-06-26T09:54:37;6.9;;;2.2;;
49582;SDS011;36329;48.816;44.624;2023-06-26T09:57:40;3.8;;;2.3;;
49582;SDS011;36329;48.816;44.624;2023-06-26T10:00:42;4.8;;;2.2;;
49582;SDS011;36329;48.816;44.624;2023-06-26T10:03:45;3.7;;;2.1;;
49582;SDS011;36329;48.816;44.624;2023-06-26T10:06:47;4.5;;;2.1;;
49582;SDS011;36329;48.816;44.624;2023-06-26T10:09:52;4.3;;;2.3;;
49582;SDS011;36329;48.816;44.624;2023-06-26T10:12:59;3.1;;;2.1;;
49582;SDS011;36329;48.816;44.624;2023-06-26T10:16:02;6.2;;;3.8;;
49582;SDS011;36329;48.816;44.624;2023-06-26T10:19:05;5.2;;;2.5;;
49582;SDS011;36329;48.816;44.624;2023-06-26T10:22:10;2.8;;;2.2;;
49582;SDS011;36329;48.816;44.624;2023-06-26T10:25:19;4.6;;;2.5;;
49582;SDS011;36329;48.816;44.624;2023-06-26T10:28:21;4;;;2.6;;
49582;SDS011;36329;48.816;44.624;2023-06-26T10:31:26;2.9;;;2.6;;
49582;SDS011;36329;48.816;44.624;2023-06-26T10:34:31;3.3;;;2.4;;
49582;SDS011;36329;48.816;44.624;2023-06-26T10:37:41;6.3;;;2.8;;
49582;SDS011;36329;48.816;44.624;2023-06-26T10:40:58;4;;;2.3;;
49582;SDS011;36329;48.816;44.624;2023-06-26T10:44:16;4.4;;;2.4;;
49582;SDS011;36329;48.816;44.624;2023-06-26T10:50:38;4.1;;;2.4;;
49582;SDS011;36329;48.816;44.624;2023-06-26T10:53:40;5.1;;;2.2;;
49582;SDS011;36329;48.816;44.624;2023-06-26T10:56:42;5.9;;;2.3;;
49582;SDS011;36329;48.816;44.624;2023-06-26T10:59:45;3.2;;;2.1;;
49582;SDS011;36329;48.816;44.624;2023-06-26T11:02:48;3.8;;;2.4;;
49582;SDS011;36329;48.816;44.624;2023-06-26T11:05:57;2.9;;;2.2;;
49582;SDS011;36329;48.816;44.624;2023-06-26T11:09:17;5.6;;;2.5;;
49582;SDS011;36329;48.816;44.624;2023-06-26T11:15:44;4.6;;;2.4;;
49582;SDS011;36329;48.816;44.624;2023-06-26T11:18:46;4.7;;;2.2;;
49582;SDS011;36329;48.816;44.624;2023-06-26T11:21:49;2.5;;;2.1;;
49582;SDS011;36329;48.816;44.624;2023-06-26T11:24:53;2.7;;;2;;
49582;SDS011;36329;48.816;44.624;2023-06-26T11:27:55;2.9;;;2.2;;
49582;SDS011;36329;48.816;44.624;2023-06-26T11:30:57;5.6;;;2.4;;
49582;SDS011;36329;48.816;44.624;2023-06-26T11:34:00;4.3;;;2.4;;
49582;SDS011;36329;48.816;44.624;2023-06-26T11:37:03;3.4;;;2.3;;
49582;SDS011;36329;48.816;44.624;2023-06-26T11:43:24;3.1;;;2.1;;
49582;SDS011;36329;48.816;44.624;2023-06-26T11:46:26;2.5;;;2.1;;
49582;SDS011;36329;48.816;44.624;2023-06-26T11:49:28;5.4;;;2;;
49582;SDS011;36329;48.816;44.624;2023-06-26T11:52:32;3.3;;;2.1;;
49582;SDS011;36329;48.816;44.624;2023-06-26T11:55:40;6;;;2.4;;
49582;SDS011;36329;48.816;44.624;2023-06-26T12:02:05;4.5;;;2.7;;
49582;SDS011;36329;48.816;44.624;2023-06-26T12:05:07;4.2;;;2.5;;
49582;SDS011;36329;48.816;44.624;2023-06-26T12:08:10;3;;;2.3;;
49582;SDS011;36329;48.816;44.624;2023-06-26T12:11:12;3.8;;;2.4;;
49582;SDS011;36329;48.816;44.624;2023-06-26T12:14:15;3.4;;;2.1;;
49582;SDS011;36329;48.816;44.624;2023-06-26T12:17:18;4.2;;;2.4;;
49582;SDS011;36329;48.816;44.624;2023-06-26T12:20:25;4.8;;;2.5;;
49582;SDS011;36329;48.816;44.624;2023-06-26T12:23:32;3.5;;;2.2;;
49582;SDS011;36329;48.816;44.624;2023-06-26T12:26:35;2.6;;;2.1;;
49582;SDS011;36329;48.816;44.624;2023-06-26T12:29:38;2.3;;;2.1;;
49582;SDS011;36329;48.816;44.624;2023-06-26T12:32:44;3.8;;;2.2;;
49582;SDS011;36329;48.816;44.624;2023-06-26T12:35:47;4;;;2.2;;
49582;SDS011;36329;48.816;44.624;2023-06-26T12:38:49;3.1;;;2.1;;
49582;SDS011;36329;48.816;44.624;2023-06-26T12:41:52;3.4;;;2.1;;
49582;SDS011;36329;48.816;44.624;2023-06-26T12:44:56;4.4;;;2.3;;
49582;SDS011;36329;48.816;44.624;2023-06-26T12:48:06;4.9;;;2.3;;
49582;SDS011;36329;48.816;44.624;2023-06-26T12:51:09;3.7;;;2.3;;
49582;SDS011;36329;48.816;44.624;2023-06-26T12:54:12;6.6;;;2.4;;
49582;SDS011;36329;48.816;44.624;2023-06-26T12:57:14;2.9;;;2.2;;
49582;SDS011;36329;48.816;44.624;2023-06-26T13:00:16;4.3;;;2.2;;
49582;SDS011;36329;48.816;44.624;2023-06-26T13:03:18;3.7;;;2.1;;
49582;SDS011;36329;48.816;44.624;2023-06-26T13:06:20;5.7;;;2.5;;
49582;SDS011;36329;48.816;44.624;2023-06-26T13:09:22;4.5;;;2.2;;
49582;SDS011;36329;48.816;44.624;2023-06-26T13:12:25;3.8;;;2.2;;
49582;SDS011;36329;48.816;44.624;2023-06-26T13:15:27;3.2;;;2.2;;
49582;SDS011;36329;48.816;44.624;2023-06-26T13:18:29;3.8;;;2.2;;
49582;SDS011;36329;48.816;44.624;2023-06-26T13:21:31;3.1;;;2.4;;
49582;SDS011;36329;48.816;44.624;2023-06-26T13:24:33;3.9;;;2.4;;
49582;SDS011;36329;48.816;44.624;2023-06-26T13:27:35;3.1;;;2.1;;
49582;SDS011;36329;48.816;44.624;2023-06-26T13:30:37;6.4;;;2.2;;
49582;SDS011;36329;48.816;44.624;2023-06-26T13:33:39;4.2;;;2.2;;
49582;SDS011;36329;48.816;44.624;2023-06-26T13:36:41;2.7;;;2;;
49582;SDS011;36329;48.816;44.624;2023-06-26T13:39:43;4.6;;;2;;
49582;SDS011;36329;48.816;44.624;2023-06-26T13:42:45;2.4;;;2.2;;
49582;SDS011;36329;48.816;44.624;2023-06-26T13:45:47;4.5;;;2.3;;
49582;SDS011;36329;48.816;44.624;2023-06-26T13:48:49;4.8;;;2.4;;
49582;SDS011;36329;48.816;44.624;2023-06-26T13:51:52;4.1;;;2.3;;
49582;SDS011;36329;48.816;44.624;2023-06-26T13:54:54;3.4;;;2.3;;
49582;SDS011;36329;48.816;44.624;2023-06-26T13:57:56;7.5;;;3;;
49582;SDS011;36329;48.816;44.624;2023-06-26T14:00:58;4.3;;;2.7;;
49582;SDS011;36329;48.816;44.624;2023-06-26T14:04:00;4.8;;;2.7;;
49582;SDS011;36329;48.816;44.624;2023-06-26T14:07:02;6.2;;;3.7;;
49582;SDS011;36329;48.816;44.624;2023-06-26T14:10:04;6.3;;;2.9;;
49582;SDS011;36329;48.816;44.624;2023-06-26T14:13:07;3.5;;;2.6;;
49582;SDS011;36329;48.816;44.624;2023-06-26T14:16:10;4.6;;;2.3;;
49582;SDS011;36329;48.816;44.624;2023-06-26T14:19:12;3.2;;;2.4;;
49582;SDS011;36329;48.816;44.624;2023-06-26T14:22:14;5.1;;;2.3;;
49582;SDS011;36329;48.816;44.624;2023-06-26T14:25:16;3.4;;;2.3;;
49582;SDS011;36329;48.816;44.624;2023-06-26T14:28:18;4.1;;;2.3;;
49582;SDS011;36329;48.816;44.624;2023-06-26T14:31:20;5.5;;;2.4;;
49582;SDS011;36329;48.816;44.624;2023-06-26T14:34:22;6;;;2.4;;
49582;SDS011;36329;48.816;44.624;2023-06-26T14:37:25;5.3;;;2.4;;
49582;SDS011;36329;48.816;44.624;2023-06-26T14:40:27;3.6;;;2.3;;
49582;SDS011;36329;48.816;44.624;2023-06-26T14:43:29;4.7;;;2.3;;
49582;SDS011;36329;48.816;44.624;2023-06-26T14:46:31;4.4;;;2.3;;
49582;SDS011;36329;48.816;44.624;2023-06-26T14:49:33;4.1;;;2.2;;
49582;SDS011;36329;48.816;44.624;2023-06-26T14:52:36;4.4;;;2.5;;
49582;SDS011;36329;48.816;44.624;2023-06-26T14:55:38;5.5;;;2.4;;
49582;SDS011;36329;48.816;44.624;2023-06-26T14:58:40;5;;;2.3;;
49582;SDS011;36329;48.816;44.624;2023-06-26T15:01:42;5.4;;;2.5;;
49582;SDS011;36329;48.816;44.624;2023-06-26T15:04:44;4.1;;;2.2;;
49582;SDS011;36329;48.816;44.624;2023-06-26T15:07:46;4;;;2.1;;
49582;SDS011;36329;48.816;44.624;2023-06-26T15:10:48;4.8;;;2.4;;
49582;SDS011;36329;48.816;44.624;2023-06-26T15:13:50;3.4;;;2.3;;
49582;SDS011;36329;48.816;44.624;2023-06-26T15:16:53;4.9;;;2.2;;
49582;SDS011;36329;48.816;44.624;2023-06-26T15:19:55;3.4;;;2.1;;
49582;SDS011;36329;48.816;44.624;2023-06-26T15:22:57;6.2;;;2.7;;
49582;SDS011;36329;48.816;44.624;2023-06-26T15:25:59;6.6;;;2.8;;
49582;SDS011;36329;48.816;44.624;2023-06-26T15:29:01;6.7;;;2.9;;
49582;SDS011;36329;48.816;44.624;2023-06-26T15:32:03;5.9;;;2.8;;
49582;SDS011;36329;48.816;44.624;2023-06-26T15:35:06;3.8;;;2.7;;
49582;SDS011;36329;48.816;44.624;2023-06-26T15:38:09;5;;;3;;
49582;SDS011;36329;48.816;44.624;2023-06-26T15:41:12;4.5;;;2.8;;
49582;SDS011;36329;48.816;44.624;2023-06-26T15:44:14;7.2;;;2.9;;
49582;SDS011;36329;48.816;44.624;2023-06-26T15:47:17;5.9;;;3;;
49582;SDS011;36329;48.816;44.624;2023-06-26T15:50:18;6.8;;;2.7;;
49582;SDS011;36329;48.816;44.624;2023-06-26T15:53:20;3.6;;;2.7;;
49582;SDS011;36329;48.816;44.624;2023-06-26T15:56:37;6.6;;;3.2;;
49582;SDS011;36329;48.816;44.624;2023-06-26T15:59:39;7.2;;;4.3;;
49582;SDS011;36329;48.816;44.624;2023-06-26T16:02:42;7.3;;;2.7;;
49582;SDS011;36329;48.816;44.624;2023-06-26T16:05:44;6;;;3.6;;
49582;SDS011;36329;48.816;44.624;2023-06-26T16:08:46;6;;;3.3;;
49582;SDS011;36329;48.816;44.624;2023-06-26T16:11:49;9.2;;;5.2;;
49582;SDS011;36329;48.816;44.624;2023-06-26T16:14:52;9.9;;;4.1;;
49582;SDS011;36329;48.816;44.624;2023-06-26T16:17:54;5;;;3.3;;
49582;SDS011;36329;48.816;44.624;2023-06-26T16:20:56;6.7;;;3.5;;
49582;SDS011;36329;48.816;44.624;2023-06-26T16:23:58;6;;;3.9;;
49582;SDS011;36329;48.816;44.624;2023-06-26T16:27:01;7.1;;;3.3;;
49582;SDS011;36329;48.816;44.624;2023-06-26T16:30:04;7.2;;;3.8;;
49582;SDS011;36329;48.816;44.624;2023-06-26T16:33:08;8;;;4.5;;
49582;SDS011;36329;48.816;44.624;2023-06-26T16:36:10;9.9;;;3.4;;
49582;SDS011;36329;48.816;44.624;2023-06-26T16:39:12;6.5;;;3.7;;
49582;SDS011;36329;48.816;44.624;2023-06-26T16:42:14;10.5;;;3.4;;
49582;SDS011;36329;48.816;44.624;2023-06-26T16:45:16;5.1;;;3.5;;
49582;SDS011;36329;48.816;44.624;2023-06-26T16:48:18;7.9;;;3.3;;
49582;SDS011;36329;48.816;44.624;2023-06-26T16:51:21;8.3;;;3.9;;
49582;SDS011;36329;48.816;44.624;2023-06-26T16:54:23;11;;;4.5;;
49582;SDS011;36329;48.816;44.624;2023-06-26T16:57:26;11;;;4;;
49582;SDS011;36329;48.816;44.624;2023-06-26T17:00:27;7.3;;;4.4;;
49582;SDS011;36329;48.816;44.624;2023-06-26T17:03:29;8;;;3.9;;
49582;SDS011;36329;48.816;44.624;2023-06-26T17:06:31;9.4;;;4.6;;
49582;SDS011;36329;48.816;44.624;2023-06-26T17:09:33;10.9;;;4.3;;
49582;SDS011;36329;48.816;44.624;2023-06-26T17:12:37;8.8;;;4;;
49582;SDS011;36329;48.816;44.624;2023-06-26T17:15:40;7.6;;;4.2;;
49582;SDS011;36329;48.816;44.624;2023-06-26T17:18:42;8.9;;;4.5;;
49582;SDS011;36329;48.816;44.624;2023-06-26T17:21:44;8.9;;;4.6;;
49582;SDS011;36329;48.816;44.624;2023-06-26T17:24:46;8.3;;;4;;
49582;SDS011;36329;48.816;44.624;2023-06-26T17:27:48;12.1;;;5.1;;
49582;SDS011;36329;48.816;44.624;2023-06-26T17:30:50;10.3;;;4.5;;
49582;SDS011;36329;48.816;44.624;2023-06-26T17:33:52;11.3;;;4.9;;
49582;SDS011;36329;48.816;44.624;2023-06-26T17:36:54;14.4;;;4.7;;
49582;SDS011;36329;48.816;44.624;2023-06-26T17:39:56;8.7;;;4.3;;
49582;SDS011;36329;48.816;44.624;2023-06-26T17:42:58;8.9;;;3.9;;
49582;SDS011;36329;48.816;44.624;2023-06-26T17:46:00;8.9;;;4.9;;
49582;SDS011;36329;48.816;44.624;2023-06-26T17:49:02;8.8;;;4.3;;
49582;SDS011;36329;48.816;44.624;2023-06-26T17:52:04;10.4;;;4.3;;
49582;SDS011;36329;48.816;44.624;2023-06-26T17:55:07;14.4;;;4.7;;
49582;SDS011;36329;48.816;44.624;2023-06-26T17:58:10;10.5;;;4.6;;
49582;SDS011;36329;48.816;44.624;2023-06-26T18:01:12;14.2;;;4.2;;
49582;SDS011;36329;48.816;44.624;2023-06-26T18:04:14;8.9;;;3.9;;
49582;SDS011;36329;48.816;44.624;2023-06-26T18:07:16;8.6;;;3.8;;
49582;SDS011;36329;48.816;44.624;2023-06-26T18:10:18;10.2;;;3.5;;
49582;SDS011;36329;48.816;44.624;2023-06-26T18:13:21;11;;;4.1;;
49582;SDS011;36329;48.816;44.624;2023-06-26T18:16:23;7.6;;;4.1;;
49582;SDS011;36329;48.816;44.624;2023-06-26T18:19:25;12.4;;;4.4;;
49582;SDS011;36329;48.816;44.624;2023-06-26T18:22:27;11.8;;;6.6;;
49582;SDS011;36329;48.816;44.624;2023-06-26T18:25:29;14;;;5.2;;
49582;SDS011;36329;48.816;44.624;2023-06-26T18:28:32;17.6;;;6.2;;
49582;SDS011;36329;48.816;44.624;2023-06-26T18:31:34;11.8;;;5;;
49582;SDS011;36329;48.816;44.624;2023-06-26T18:34:36;13;;;4.9;;
49582;SDS011;36329;48.816;44.624;2023-06-26T18:37:38;8.6;;;4.5;;
49582;SDS011;36329;48.816;44.624;2023-06-26T18:40:40;12.9;;;3.7;;
49582;SDS011;36329;48.816;44.624;2023-06-26T18:43:42;9.9;;;4.4;;
49582;SDS011;36329;48.816;44.624;2023-06-26T18:46:44;11.1;;;4.4;;
49582;SDS011;36329;48.816;44.624;2023-06-26T18:49:48;10.4;;;4.4;;
49582;SDS011;36329;48.816;44.624;2023-06-26T18:53:09;22.3;;;8.8;;
49582;SDS011;36329;48.816;44.624;2023-06-26T18:56:19;14.2;;;6.6;;
49582;SDS011;36329;48.816;44.624;2023-06-26T18:59:27;19;;;6.9;;